sensor_id;sensor_type;location;lat;lon;timestamp;P1;durP1;ratioP1;P2;durP2;ratioP2
34236;SDS011;20501;45.956;13.632;2024-02-28T00:02:07;7.78;;;2.88;;
34236;SDS011;20501;45.956;13.632;2024-02-28T00:04:33;5.93;;;3.10;;
34236;SDS011;20501;45.956;13.632;2024-02-28T00:06:58;6.55;;;2.67;;
34236;SDS011;20501;45.956;13.632;2024-02-28T00:09:24;8.63;;;2.88;;
34236;SDS011;20501;45.956;13.632;2024-02-28T00:11:49;7.18;;;2.55;;
34236;SDS011;20501;45.956;13.632;2024-02-28T00:14:15;6.82;;;2.97;;
34236;SDS011;20501;45.956;13.632;2024-02-28T00:16:44;4.82;;;2.80;;
34236;SDS011;20501;45.956;13.632;2024-02-28T00:19:10;7.05;;;2.97;;
34236;SDS011;20501;45.956;13.632;2024-02-28T00:21:37;6.05;;;3.10;;
34236;SDS011;20501;45.956;13.632;2024-02-28T00:24:03;4.65;;;2.72;;
34236;SDS011;20501;45.956;13.632;2024-02-28T00:26:29;8.32;;;2.42;;
34236;SDS011;20501;45.956;13.632;2024-02-28T00:28:54;6.18;;;3.58;;
34236;SDS011;20501;45.956;13.632;2024-02-28T00:31:20;7.07;;;2.67;;
34236;SDS011;20501;45.956;13.632;2024-02-28T00:33:46;7.33;;;2.87;;
34236;SDS011;20501;45.956;13.632;2024-02-28T00:36:12;6.90;;;2.63;;
34236;SDS011;20501;45.956;13.632;2024-02-28T00:38:38;18.13;;;3.05;;
34236;SDS011;20501;45.956;13.632;2024-02-28T00:41:03;3.90;;;2.85;;
34236;SDS011;20501;45.956;13.632;2024-02-28T00:43:28;7.25;;;2.58;;
34236;SDS011;20501;45.956;13.632;2024-02-28T00:45:54;5.93;;;3.13;;
34236;SDS011;20501;45.956;13.632;2024-02-28T00:48:20;6.72;;;2.72;;
34236;SDS011;20501;45.956;13.632;2024-02-28T00:50:47;4.43;;;2.90;;
34236;SDS011;20501;45.956;13.632;2024-02-28T00:53:12;5.45;;;2.63;;
34236;SDS011;20501;45.956;13.632;2024-02-28T00:55:37;3.38;;;2.13;;
34236;SDS011;20501;45.956;13.632;2024-02-28T00:58:03;4.85;;;2.70;;
34236;SDS011;20501;45.956;13.632;2024-02-28T01:00:28;6.22;;;3.13;;
34236;SDS011;20501;45.956;13.632;2024-02-28T01:02:54;7.55;;;3.30;;
34236;SDS011;20501;45.956;13.632;2024-02-28T01:05:19;5.43;;;3.20;;
34236;SDS011;20501;45.956;13.632;2024-02-28T01:07:45;7.30;;;3.05;;
34236;SDS011;20501;45.956;13.632;2024-02-28T01:10:10;6.88;;;3.20;;
34236;SDS011;20501;45.956;13.632;2024-02-28T01:12:36;7.35;;;2.67;;
34236;SDS011;20501;45.956;13.632;2024-02-28T01:15:02;7.82;;;3.25;;
34236;SDS011;20501;45.956;13.632;2024-02-28T01:17:28;5.38;;;3.30;;
34236;SDS011;20501;45.956;13.632;2024-02-28T01:19:54;9.52;;;3.35;;
34236;SDS011;20501;45.956;13.632;2024-02-28T01:22:19;7.25;;;3.28;;
34236;SDS011;20501;45.956;13.632;2024-02-28T01:24:45;5.47;;;3.20;;
34236;SDS011;20501;45.956;13.632;2024-02-28T01:27:10;5.57;;;3.10;;
34236;SDS011;20501;45.956;13.632;2024-02-28T01:29:36;8.98;;;3.67;;
34236;SDS011;20501;45.956;13.632;2024-02-28T01:32:01;7.03;;;3.33;;
34236;SDS011;20501;45.956;13.632;2024-02-28T01:34:26;8.95;;;3.50;;
34236;SDS011;20501;45.956;13.632;2024-02-28T01:36:52;9.43;;;3.65;;
34236;SDS011;20501;45.956;13.632;2024-02-28T01:39:17;10.48;;;3.50;;
34236;SDS011;20501;45.956;13.632;2024-02-28T01:41:50;9.55;;;3.67;;
34236;SDS011;20501;45.956;13.632;2024-02-28T01:44:16;7.72;;;4.00;;
34236;SDS011;20501;45.956;13.632;2024-02-28T01:46:42;5.53;;;3.90;;
34236;SDS011;20501;45.956;13.632;2024-02-28T01:49:07;7.85;;;3.67;;
34236;SDS011;20501;45.956;13.632;2024-02-28T01:51:33;7.93;;;3.45;;
34236;SDS011;20501;45.956;13.632;2024-02-28T01:53:59;4.87;;;3.37;;
34236;SDS011;20501;45.956;13.632;2024-02-28T01:56:25;7.45;;;3.67;;
34236;SDS011;20501;45.956;13.632;2024-02-28T01:58:51;7.22;;;3.83;;
34236;SDS011;20501;45.956;13.632;2024-02-28T02:01:18;10.73;;;3.97;;
34236;SDS011;20501;45.956;13.632;2024-02-28T02:03:44;11.35;;;3.72;;
34236;SDS011;20501;45.956;13.632;2024-02-28T02:06:09;9.30;;;3.60;;
34236;SDS011;20501;45.956;13.632;2024-02-28T02:08:36;8.02;;;3.85;;
34236;SDS011;20501;45.956;13.632;2024-02-28T02:11:02;10.90;;;3.78;;
34236;SDS011;20501;45.956;13.632;2024-02-28T02:13:27;6.50;;;2.95;;
34236;SDS011;20501;45.956;13.632;2024-02-28T02:15:53;9.13;;;3.55;;
34236;SDS011;20501;45.956;13.632;2024-02-28T02:18:18;9.38;;;3.58;;
34236;SDS011;20501;45.956;13.632;2024-02-28T02:20:44;4.70;;;3.20;;
34236;SDS011;20501;45.956;13.632;2024-02-28T02:23:14;6.20;;;3.67;;
34236;SDS011;20501;45.956;13.632;2024-02-28T02:25:45;8.68;;;3.60;;
34236;SDS011;20501;45.956;13.632;2024-02-28T02:28:11;8.68;;;3.58;;
34236;SDS011;20501;45.956;13.632;2024-02-28T02:30:37;7.00;;;3.58;;
34236;SDS011;20501;45.956;13.632;2024-02-28T02:33:04;8.70;;;3.78;;
34236;SDS011;20501;45.956;13.632;2024-02-28T02:35:30;8.53;;;3.97;;
34236;SDS011;20501;45.956;13.632;2024-02-28T02:37:55;9.23;;;3.88;;
34236;SDS011;20501;45.956;13.632;2024-02-28T02:40:21;7.55;;;5.10;;
34236;SDS011;20501;45.956;13.632;2024-02-28T02:42:47;8.05;;;4.00;;
34236;SDS011;20501;45.956;13.632;2024-02-28T02:45:12;11.00;;;4.38;;
34236;SDS011;20501;45.956;13.632;2024-02-28T02:47:38;8.55;;;4.28;;
34236;SDS011;20501;45.956;13.632;2024-02-28T02:50:03;6.32;;;3.00;;
34236;SDS011;20501;45.956;13.632;2024-02-28T02:52:30;7.40;;;3.30;;
34236;SDS011;20501;45.956;13.632;2024-02-28T02:54:55;10.73;;;4.35;;
34236;SDS011;20501;45.956;13.632;2024-02-28T02:57:20;10.40;;;3.67;;
34236;SDS011;20501;45.956;13.632;2024-02-28T02:59:46;11.13;;;3.67;;
34236;SDS011;20501;45.956;13.632;2024-02-28T03:02:11;10.38;;;3.85;;
34236;SDS011;20501;45.956;13.632;2024-02-28T03:04:37;8.77;;;4.43;;
34236;SDS011;20501;45.956;13.632;2024-02-28T03:07:02;6.43;;;3.50;;
34236;SDS011;20501;45.956;13.632;2024-02-28T03:09:27;8.18;;;4.63;;
34236;SDS011;20501;45.956;13.632;2024-02-28T03:11:53;8.43;;;4.18;;
34236;SDS011;20501;45.956;13.632;2024-02-28T03:14:18;8.88;;;4.22;;
34236;SDS011;20501;45.956;13.632;2024-02-28T03:16:47;8.40;;;4.28;;
34236;SDS011;20501;45.956;13.632;2024-02-28T03:19:13;12.60;;;4.13;;
34236;SDS011;20501;45.956;13.632;2024-02-28T03:21:40;8.57;;;4.10;;
34236;SDS011;20501;45.956;13.632;2024-02-28T03:24:06;9.60;;;4.65;;
34236;SDS011;20501;45.956;13.632;2024-02-28T03:26:31;9.55;;;4.90;;
34236;SDS011;20501;45.956;13.632;2024-02-28T03:28:57;12.77;;;4.60;;
34236;SDS011;20501;45.956;13.632;2024-02-28T03:31:23;14.13;;;4.85;;
34236;SDS011;20501;45.956;13.632;2024-02-28T03:33:48;6.25;;;4.13;;
34236;SDS011;20501;45.956;13.632;2024-02-28T03:36:14;9.98;;;4.47;;
34236;SDS011;20501;45.956;13.632;2024-02-28T03:38:39;12.52;;;4.47;;
34236;SDS011;20501;45.956;13.632;2024-02-28T03:41:05;8.02;;;4.55;;
34236;SDS011;20501;45.956;13.632;2024-02-28T03:43:30;6.57;;;4.35;;
34236;SDS011;20501;45.956;13.632;2024-02-28T03:45:56;7.68;;;4.45;;
34236;SDS011;20501;45.956;13.632;2024-02-28T03:48:21;12.75;;;5.90;;
34236;SDS011;20501;45.956;13.632;2024-02-28T03:50:46;8.52;;;4.38;;
34236;SDS011;20501;45.956;13.632;2024-02-28T03:53:12;11.48;;;4.47;;
34236;SDS011;20501;45.956;13.632;2024-02-28T03:55:38;14.70;;;4.97;;
34236;SDS011;20501;45.956;13.632;2024-02-28T03:58:03;10.77;;;4.57;;
34236;SDS011;20501;45.956;13.632;2024-02-28T04:00:29;10.13;;;5.30;;
34236;SDS011;20501;45.956;13.632;2024-02-28T04:02:54;9.15;;;4.30;;
34236;SDS011;20501;45.956;13.632;2024-02-28T04:05:20;14.38;;;4.38;;
34236;SDS011;20501;45.956;13.632;2024-02-28T04:07:45;13.38;;;4.80;;
34236;SDS011;20501;45.956;13.632;2024-02-28T04:10:11;11.80;;;4.53;;
34236;SDS011;20501;45.956;13.632;2024-02-28T04:12:36;14.05;;;4.68;;
34236;SDS011;20501;45.956;13.632;2024-02-28T04:15:02;9.60;;;4.40;;
34236;SDS011;20501;45.956;13.632;2024-02-28T04:17:28;7.22;;;4.22;;
34236;SDS011;20501;45.956;13.632;2024-02-28T04:19:53;11.80;;;4.40;;
34236;SDS011;20501;45.956;13.632;2024-02-28T04:22:19;9.48;;;4.50;;
34236;SDS011;20501;45.956;13.632;2024-02-28T04:24:44;12.45;;;4.60;;
34236;SDS011;20501;45.956;13.632;2024-02-28T04:27:09;10.35;;;5.68;;
34236;SDS011;20501;45.956;13.632;2024-02-28T04:29:37;11.82;;;5.60;;
34236;SDS011;20501;45.956;13.632;2024-02-28T04:32:03;9.85;;;4.88;;
34236;SDS011;20501;45.956;13.632;2024-02-28T04:34:29;11.20;;;4.90;;
34236;SDS011;20501;45.956;13.632;2024-02-28T04:36:54;10.48;;;4.32;;
34236;SDS011;20501;45.956;13.632;2024-02-28T04:39:19;13.07;;;5.25;;
34236;SDS011;20501;45.956;13.632;2024-02-28T04:41:45;11.15;;;4.45;;
34236;SDS011;20501;45.956;13.632;2024-02-28T04:44:10;8.90;;;4.78;;
34236;SDS011;20501;45.956;13.632;2024-02-28T04:46:37;9.73;;;5.30;;
34236;SDS011;20501;45.956;13.632;2024-02-28T04:49:02;9.80;;;4.72;;
34236;SDS011;20501;45.956;13.632;2024-02-28T04:51:28;11.50;;;4.93;;
34236;SDS011;20501;45.956;13.632;2024-02-28T04:53:53;12.10;;;5.47;;
34236;SDS011;20501;45.956;13.632;2024-02-28T04:56:19;11.00;;;5.57;;
34236;SDS011;20501;45.956;13.632;2024-02-28T04:58:44;12.15;;;4.70;;
34236;SDS011;20501;45.956;13.632;2024-02-28T05:01:09;10.23;;;5.10;;
34236;SDS011;20501;45.956;13.632;2024-02-28T05:03:35;8.63;;;5.38;;
34236;SDS011;20501;45.956;13.632;2024-02-28T05:06:00;12.27;;;6.22;;
34236;SDS011;20501;45.956;13.632;2024-02-28T05:08:26;11.80;;;6.75;;
34236;SDS011;20501;45.956;13.632;2024-02-28T05:10:53;11.82;;;5.85;;
34236;SDS011;20501;45.956;13.632;2024-02-28T05:13:19;13.48;;;6.45;;
34236;SDS011;20501;45.956;13.632;2024-02-28T05:15:44;11.82;;;6.00;;
34236;SDS011;20501;45.956;13.632;2024-02-28T05:18:10;13.55;;;5.70;;
34236;SDS011;20501;45.956;13.632;2024-02-28T05:20:35;9.48;;;6.00;;
34236;SDS011;20501;45.956;13.632;2024-02-28T05:23:01;12.20;;;5.78;;
34236;SDS011;20501;45.956;13.632;2024-02-28T05:25:27;14.48;;;6.30;;
34236;SDS011;20501;45.956;13.632;2024-02-28T05:27:52;8.57;;;5.65;;
34236;SDS011;20501;45.956;13.632;2024-02-28T05:30:17;12.25;;;5.43;;
34236;SDS011;20501;45.956;13.632;2024-02-28T05:32:44;10.25;;;5.88;;
34236;SDS011;20501;45.956;13.632;2024-02-28T05:35:10;18.08;;;6.03;;
34236;SDS011;20501;45.956;13.632;2024-02-28T05:37:36;14.90;;;6.18;;
34236;SDS011;20501;45.956;13.632;2024-02-28T05:40:02;14.80;;;5.13;;
34236;SDS011;20501;45.956;13.632;2024-02-28T05:42:27;23.00;;;11.02;;
34236;SDS011;20501;45.956;13.632;2024-02-28T05:44:53;19.85;;;9.30;;
34236;SDS011;20501;45.956;13.632;2024-02-28T05:47:19;19.83;;;9.10;;
34236;SDS011;20501;45.956;13.632;2024-02-28T05:49:45;18.55;;;9.20;;
34236;SDS011;20501;45.956;13.632;2024-02-28T05:52:10;17.88;;;8.40;;
34236;SDS011;20501;45.956;13.632;2024-02-28T05:54:36;17.15;;;7.93;;
34236;SDS011;20501;45.956;13.632;2024-02-28T05:57:01;14.85;;;9.43;;
34236;SDS011;20501;45.956;13.632;2024-02-28T05:59:27;14.90;;;7.03;;
34236;SDS011;20501;45.956;13.632;2024-02-28T06:01:52;14.05;;;8.50;;
34236;SDS011;20501;45.956;13.632;2024-02-28T06:04:18;15.77;;;8.13;;
34236;SDS011;20501;45.956;13.632;2024-02-28T06:06:43;11.68;;;7.47;;
34236;SDS011;20501;45.956;13.632;2024-02-28T06:09:09;13.80;;;6.40;;
34236;SDS011;20501;45.956;13.632;2024-02-28T06:11:35;15.70;;;7.68;;
34236;SDS011;20501;45.956;13.632;2024-02-28T06:14:01;17.60;;;8.02;;
34236;SDS011;20501;45.956;13.632;2024-02-28T06:16:27;14.13;;;7.32;;
34236;SDS011;20501;45.956;13.632;2024-02-28T06:18:53;15.68;;;6.00;;
34236;SDS011;20501;45.956;13.632;2024-02-28T06:21:18;18.10;;;5.10;;
34236;SDS011;20501;45.956;13.632;2024-02-28T06:23:47;13.05;;;4.80;;
34236;SDS011;20501;45.956;13.632;2024-02-28T06:26:13;11.20;;;4.82;;
34236;SDS011;20501;45.956;13.632;2024-02-28T06:28:41;9.82;;;5.20;;
34236;SDS011;20501;45.956;13.632;2024-02-28T06:31:16;12.70;;;5.78;;
34236;SDS011;20501;45.956;13.632;2024-02-28T06:33:42;9.98;;;5.10;;
34236;SDS011;20501;45.956;13.632;2024-02-28T06:36:08;13.52;;;6.15;;
34236;SDS011;20501;45.956;13.632;2024-02-28T06:38:33;12.90;;;5.78;;
34236;SDS011;20501;45.956;13.632;2024-02-28T06:41:01;19.50;;;6.70;;
34236;SDS011;20501;45.956;13.632;2024-02-28T06:43:27;10.57;;;5.32;;
34236;SDS011;20501;45.956;13.632;2024-02-28T06:45:53;14.77;;;5.80;;
34236;SDS011;20501;45.956;13.632;2024-02-28T06:48:18;13.40;;;5.50;;
34236;SDS011;20501;45.956;13.632;2024-02-28T06:50:44;10.63;;;5.88;;
34236;SDS011;20501;45.956;13.632;2024-02-28T06:53:09;12.50;;;5.80;;
34236;SDS011;20501;45.956;13.632;2024-02-28T06:55:35;13.00;;;5.80;;
34236;SDS011;20501;45.956;13.632;2024-02-28T06:58:00;12.77;;;6.72;;
34236;SDS011;20501;45.956;13.632;2024-02-28T07:00:25;12.35;;;5.45;;
34236;SDS011;20501;45.956;13.632;2024-02-28T07:02:51;13.98;;;6.30;;
34236;SDS011;20501;45.956;13.632;2024-02-28T07:05:16;12.95;;;5.20;;
34236;SDS011;20501;45.956;13.632;2024-02-28T07:07:42;11.65;;;6.10;;
34236;SDS011;20501;45.956;13.632;2024-02-28T07:10:07;12.80;;;5.28;;
34236;SDS011;20501;45.956;13.632;2024-02-28T07:12:33;13.45;;;6.03;;
34236;SDS011;20501;45.956;13.632;2024-02-28T07:14:58;14.95;;;6.30;;
34236;SDS011;20501;45.956;13.632;2024-02-28T07:17:23;13.15;;;5.40;;
34236;SDS011;20501;45.956;13.632;2024-02-28T07:19:49;10.02;;;5.47;;
34236;SDS011;20501;45.956;13.632;2024-02-28T07:22:14;14.68;;;5.55;;
34236;SDS011;20501;45.956;13.632;2024-02-28T07:24:40;11.80;;;5.47;;
34236;SDS011;20501;45.956;13.632;2024-02-28T07:27:06;13.45;;;5.40;;
34236;SDS011;20501;45.956;13.632;2024-02-28T07:29:31;14.45;;;5.30;;
34236;SDS011;20501;45.956;13.632;2024-02-28T07:31:57;18.08;;;5.45;;
34236;SDS011;20501;45.956;13.632;2024-02-28T07:34:22;21.50;;;5.38;;
34236;SDS011;20501;45.956;13.632;2024-02-28T07:36:47;8.88;;;5.07;;
34236;SDS011;20501;45.956;13.632;2024-02-28T07:39:13;11.40;;;5.18;;
34236;SDS011;20501;45.956;13.632;2024-02-28T07:41:39;14.43;;;5.03;;
34236;SDS011;20501;45.956;13.632;2024-02-28T07:46:32;17.33;;;5.28;;
34236;SDS011;20501;45.956;13.632;2024-02-28T07:48:57;9.00;;;5.05;;
34236;SDS011;20501;45.956;13.632;2024-02-28T07:51:23;12.02;;;5.18;;
34236;SDS011;20501;45.956;13.632;2024-02-28T07:53:48;13.32;;;5.35;;
34236;SDS011;20501;45.956;13.632;2024-02-28T07:56:16;8.25;;;4.47;;
34236;SDS011;20501;45.956;13.632;2024-02-28T07:58:43;17.65;;;5.43;;
34236;SDS011;20501;45.956;13.632;2024-02-28T08:01:09;13.32;;;5.18;;
34236;SDS011;20501;45.956;13.632;2024-02-28T08:03:35;14.15;;;5.03;;
34236;SDS011;20501;45.956;13.632;2024-02-28T08:06:00;11.30;;;4.60;;
34236;SDS011;20501;45.956;13.632;2024-02-28T08:08:26;9.35;;;4.70;;
34236;SDS011;20501;45.956;13.632;2024-02-28T08:10:51;10.73;;;5.22;;
34236;SDS011;20501;45.956;13.632;2024-02-28T08:13:18;17.40;;;7.95;;
34236;SDS011;20501;45.956;13.632;2024-02-28T08:15:44;12.57;;;5.87;;
34236;SDS011;20501;45.956;13.632;2024-02-28T08:18:09;12.85;;;6.22;;
34236;SDS011;20501;45.956;13.632;2024-02-28T08:20:38;13.25;;;4.95;;
34236;SDS011;20501;45.956;13.632;2024-02-28T08:23:04;23.38;;;10.95;;
34236;SDS011;20501;45.956;13.632;2024-02-28T08:25:30;16.77;;;7.38;;
34236;SDS011;20501;45.956;13.632;2024-02-28T08:27:55;15.20;;;6.65;;
34236;SDS011;20501;45.956;13.632;2024-02-28T08:30:21;17.58;;;6.78;;
34236;SDS011;20501;45.956;13.632;2024-02-28T08:32:47;12.90;;;5.97;;
34236;SDS011;20501;45.956;13.632;2024-02-28T08:35:12;13.68;;;5.75;;
34236;SDS011;20501;45.956;13.632;2024-02-28T08:37:38;10.05;;;6.10;;
34236;SDS011;20501;45.956;13.632;2024-02-28T08:40:04;10.80;;;5.53;;
34236;SDS011;20501;45.956;13.632;2024-02-28T08:42:30;15.88;;;5.90;;
34236;SDS011;20501;45.956;13.632;2024-02-28T08:44:55;9.85;;;6.10;;
34236;SDS011;20501;45.956;13.632;2024-02-28T08:47:24;14.05;;;6.30;;
34236;SDS011;20501;45.956;13.632;2024-02-28T08:49:50;12.63;;;5.50;;
34236;SDS011;20501;45.956;13.632;2024-02-28T08:52:16;26.88;;;8.00;;
34236;SDS011;20501;45.956;13.632;2024-02-28T08:54:42;23.33;;;11.15;;
34236;SDS011;20501;45.956;13.632;2024-02-28T08:57:07;18.58;;;8.77;;
34236;SDS011;20501;45.956;13.632;2024-02-28T08:59:33;19.75;;;8.30;;
34236;SDS011;20501;45.956;13.632;2024-02-28T09:01:58;27.60;;;11.88;;
34236;SDS011;20501;45.956;13.632;2024-02-28T09:04:24;15.35;;;6.50;;
34236;SDS011;20501;45.956;13.632;2024-02-28T09:06:49;12.95;;;7.55;;
34236;SDS011;20501;45.956;13.632;2024-02-28T09:09:15;9.95;;;5.15;;
34236;SDS011;20501;45.956;13.632;2024-02-28T09:11:40;12.43;;;4.95;;
34236;SDS011;20501;45.956;13.632;2024-02-28T09:14:05;13.73;;;5.28;;
34236;SDS011;20501;45.956;13.632;2024-02-28T09:16:31;17.67;;;5.22;;
34236;SDS011;20501;45.956;13.632;2024-02-28T09:18:56;14.90;;;6.00;;
34236;SDS011;20501;45.956;13.632;2024-02-28T09:21:22;9.93;;;4.75;;
34236;SDS011;20501;45.956;13.632;2024-02-28T09:23:47;11.95;;;6.03;;
34236;SDS011;20501;45.956;13.632;2024-02-28T09:26:13;12.75;;;6.75;;
34236;SDS011;20501;45.956;13.632;2024-02-28T09:28:38;15.25;;;6.72;;
34236;SDS011;20501;45.956;13.632;2024-02-28T09:31:03;18.92;;;7.43;;
34236;SDS011;20501;45.956;13.632;2024-02-28T09:33:29;15.10;;;6.28;;
34236;SDS011;20501;45.956;13.632;2024-02-28T09:35:54;15.68;;;7.45;;
34236;SDS011;20501;45.956;13.632;2024-02-28T09:38:20;17.17;;;9.20;;
34236;SDS011;20501;45.956;13.632;2024-02-28T09:40:46;15.85;;;7.25;;
34236;SDS011;20501;45.956;13.632;2024-02-28T09:43:47;17.23;;;8.20;;
34236;SDS011;20501;45.956;13.632;2024-02-28T09:46:07;13.68;;;6.03;;
34236;SDS011;20501;45.956;13.632;2024-02-28T09:48:36;14.27;;;6.05;;
34236;SDS011;20501;45.956;13.632;2024-02-28T09:51:05;14.35;;;6.10;;
34236;SDS011;20501;45.956;13.632;2024-02-28T09:53:31;12.13;;;5.90;;
34236;SDS011;20501;45.956;13.632;2024-02-28T09:55:56;14.27;;;5.97;;
34236;SDS011;20501;45.956;13.632;2024-02-28T09:58:22;11.10;;;5.70;;
34236;SDS011;20501;45.956;13.632;2024-02-28T10:00:49;14.23;;;5.93;;
34236;SDS011;20501;45.956;13.632;2024-02-28T10:03:18;11.75;;;5.32;;
34236;SDS011;20501;45.956;13.632;2024-02-28T10:05:48;8.45;;;5.32;;
34236;SDS011;20501;45.956;13.632;2024-02-28T10:08:14;12.57;;;5.07;;
34236;SDS011;20501;45.956;13.632;2024-02-28T10:10:47;13.82;;;4.88;;
34236;SDS011;20501;45.956;13.632;2024-02-28T10:13:13;8.68;;;5.05;;
34236;SDS011;20501;45.956;13.632;2024-02-28T10:15:41;10.82;;;4.78;;
34236;SDS011;20501;45.956;13.632;2024-02-28T10:18:06;19.58;;;5.95;;
34236;SDS011;20501;45.956;13.632;2024-02-28T10:20:32;12.27;;;5.30;;
34236;SDS011;20501;45.956;13.632;2024-02-28T10:22:58;18.03;;;6.00;;
34236;SDS011;20501;45.956;13.632;2024-02-28T10:25:24;14.82;;;5.32;;
34236;SDS011;20501;45.956;13.632;2024-02-28T10:27:51;15.52;;;5.20;;
34236;SDS011;20501;45.956;13.632;2024-02-28T10:30:16;21.25;;;5.10;;
34236;SDS011;20501;45.956;13.632;2024-02-28T10:32:50;11.60;;;4.97;;
34236;SDS011;20501;45.956;13.632;2024-02-28T10:35:18;11.00;;;4.72;;
34236;SDS011;20501;45.956;13.632;2024-02-28T10:37:44;17.35;;;5.15;;
34236;SDS011;20501;45.956;13.632;2024-02-28T10:40:11;16.60;;;5.70;;
34236;SDS011;20501;45.956;13.632;2024-02-28T10:42:39;16.73;;;5.88;;
34236;SDS011;20501;45.956;13.632;2024-02-28T10:45:07;13.50;;;5.30;;
34236;SDS011;20501;45.956;13.632;2024-02-28T10:47:35;14.48;;;4.35;;
34236;SDS011;20501;45.956;13.632;2024-02-28T10:50:05;10.32;;;4.22;;
34236;SDS011;20501;45.956;13.632;2024-02-28T10:52:35;12.77;;;5.15;;
34236;SDS011;20501;45.956;13.632;2024-02-28T10:55:20;9.60;;;5.03;;
34236;SDS011;20501;45.956;13.632;2024-02-28T10:57:51;15.55;;;5.25;;
34236;SDS011;20501;45.956;13.632;2024-02-28T11:00:23;11.43;;;4.93;;
34236;SDS011;20501;45.956;13.632;2024-02-28T11:02:49;12.48;;;5.07;;
34236;SDS011;20501;45.956;13.632;2024-02-28T11:05:14;11.80;;;5.40;;
34236;SDS011;20501;45.956;13.632;2024-02-28T11:07:43;13.43;;;6.30;;
34236;SDS011;20501;45.956;13.632;2024-02-28T11:10:08;16.80;;;4.78;;
34236;SDS011;20501;45.956;13.632;2024-02-28T11:12:35;16.70;;;4.53;;
34236;SDS011;20501;45.956;13.632;2024-02-28T11:15:03;21.05;;;4.68;;
34236;SDS011;20501;45.956;13.632;2024-02-28T11:17:32;12.32;;;4.25;;
34236;SDS011;20501;45.956;13.632;2024-02-28T11:19:58;14.77;;;4.45;;
34236;SDS011;20501;45.956;13.632;2024-02-28T11:22:27;12.77;;;4.10;;
34236;SDS011;20501;45.956;13.632;2024-02-28T11:24:53;14.43;;;4.45;;
34236;SDS011;20501;45.956;13.632;2024-02-28T11:27:20;15.38;;;4.15;;
34236;SDS011;20501;45.956;13.632;2024-02-28T11:29:46;11.63;;;3.73;;
34236;SDS011;20501;45.956;13.632;2024-02-28T11:32:15;13.32;;;4.05;;
34236;SDS011;20501;45.956;13.632;2024-02-28T11:34:41;14.15;;;3.67;;
34236;SDS011;20501;45.956;13.632;2024-02-28T11:37:06;12.55;;;3.45;;
34236;SDS011;20501;45.956;13.632;2024-02-28T11:42:12;19.70;;;4.38;;
34236;SDS011;20501;45.956;13.632;2024-02-28T11:44:41;6.43;;;3.00;;
34236;SDS011;20501;45.956;13.632;2024-02-28T11:47:10;12.77;;;4.05;;
34236;SDS011;20501;45.956;13.632;2024-02-28T11:49:36;13.30;;;3.58;;
34236;SDS011;20501;45.956;13.632;2024-02-28T11:52:02;17.15;;;4.00;;
34236;SDS011;20501;45.956;13.632;2024-02-28T11:54:29;18.20;;;3.88;;
34236;SDS011;20501;45.956;13.632;2024-02-28T11:56:55;13.32;;;4.18;;
34236;SDS011;20501;45.956;13.632;2024-02-28T11:59:20;13.27;;;3.88;;
34236;SDS011;20501;45.956;13.632;2024-02-28T12:01:46;9.93;;;3.70;;
34236;SDS011;20501;45.956;13.632;2024-02-28T12:04:15;21.60;;;3.97;;
34236;SDS011;20501;45.956;13.632;2024-02-28T12:06:41;12.90;;;4.57;;
34236;SDS011;20501;45.956;13.632;2024-02-28T12:09:08;11.68;;;4.00;;
34236;SDS011;20501;45.956;13.632;2024-02-28T12:11:41;9.82;;;3.60;;
34236;SDS011;20501;45.956;13.632;2024-02-28T12:14:07;13.70;;;4.47;;
34236;SDS011;20501;45.956;13.632;2024-02-28T12:18:59;10.98;;;3.90;;
34236;SDS011;20501;45.956;13.632;2024-02-28T12:21:25;21.95;;;4.63;;
34236;SDS011;20501;45.956;13.632;2024-02-28T12:23:50;13.20;;;5.15;;
34236;SDS011;20501;45.956;13.632;2024-02-28T12:26:19;9.00;;;4.10;;
34236;SDS011;20501;45.956;13.632;2024-02-28T12:28:45;22.13;;;4.55;;
34236;SDS011;20501;45.956;13.632;2024-02-28T12:31:11;10.00;;;4.32;;
34236;SDS011;20501;45.956;13.632;2024-02-28T12:33:37;14.63;;;5.15;;
34236;SDS011;20501;45.956;13.632;2024-02-28T12:36:03;13.30;;;4.75;;
34236;SDS011;20501;45.956;13.632;2024-02-28T12:38:29;14.70;;;4.38;;
34236;SDS011;20501;45.956;13.632;2024-02-28T12:40:56;14.50;;;4.30;;
34236;SDS011;20501;45.956;13.632;2024-02-28T12:43:21;8.63;;;3.80;;
34236;SDS011;20501;45.956;13.632;2024-02-28T12:45:47;16.60;;;5.13;;
34236;SDS011;20501;45.956;13.632;2024-02-28T12:48:12;14.63;;;5.47;;
34236;SDS011;20501;45.956;13.632;2024-02-28T12:50:38;13.02;;;3.83;;
34236;SDS011;20501;45.956;13.632;2024-02-28T12:53:03;11.05;;;4.13;;
34236;SDS011;20501;45.956;13.632;2024-02-28T12:55:29;18.17;;;5.10;;
34236;SDS011;20501;45.956;13.632;2024-02-28T12:57:54;22.33;;;6.57;;
34236;SDS011;20501;45.956;13.632;2024-02-28T13:00:20;22.42;;;4.90;;
34236;SDS011;20501;45.956;13.632;2024-02-28T13:02:46;17.13;;;4.40;;
34236;SDS011;20501;45.956;13.632;2024-02-28T13:05:12;21.90;;;5.30;;
34236;SDS011;20501;45.956;13.632;2024-02-28T13:07:38;25.35;;;5.32;;
34236;SDS011;20501;45.956;13.632;2024-02-28T13:10:04;23.83;;;6.00;;
34236;SDS011;20501;45.956;13.632;2024-02-28T13:12:30;12.83;;;5.03;;
34236;SDS011;20501;45.956;13.632;2024-02-28T13:17:22;19.15;;;5.60;;
34236;SDS011;20501;45.956;13.632;2024-02-28T13:19:48;19.45;;;5.93;;
34236;SDS011;20501;45.956;13.632;2024-02-28T13:22:13;10.90;;;5.18;;
34236;SDS011;20501;45.956;13.632;2024-02-28T13:24:39;16.38;;;5.50;;
34236;SDS011;20501;45.956;13.632;2024-02-28T13:27:04;16.23;;;5.22;;
34236;SDS011;20501;45.956;13.632;2024-02-28T13:29:30;14.32;;;6.05;;
34236;SDS011;20501;45.956;13.632;2024-02-28T13:34:22;18.58;;;5.32;;
34236;SDS011;20501;45.956;13.632;2024-02-28T13:36:48;23.05;;;5.30;;
34236;SDS011;20501;45.956;13.632;2024-02-28T13:39:13;17.42;;;6.30;;
34236;SDS011;20501;45.956;13.632;2024-02-28T13:41:39;25.58;;;6.15;;
34236;SDS011;20501;45.956;13.632;2024-02-28T13:44:04;17.80;;;5.85;;
34236;SDS011;20501;45.956;13.632;2024-02-28T13:46:30;25.70;;;6.30;;
34236;SDS011;20501;45.956;13.632;2024-02-28T13:48:57;16.02;;;4.50;;
34236;SDS011;20501;45.956;13.632;2024-02-28T13:51:23;64.38;;;7.47;;
34236;SDS011;20501;45.956;13.632;2024-02-28T13:53:49;14.13;;;5.70;;
34236;SDS011;20501;45.956;13.632;2024-02-28T13:56:17;18.75;;;5.57;;
34236;SDS011;20501;45.956;13.632;2024-02-28T13:58:43;13.77;;;5.20;;
34236;SDS011;20501;45.956;13.632;2024-02-28T14:01:09;16.65;;;5.25;;
34236;SDS011;20501;45.956;13.632;2024-02-28T14:03:34;21.02;;;5.68;;
34236;SDS011;20501;45.956;13.632;2024-02-28T14:06:00;14.75;;;4.82;;
34236;SDS011;20501;45.956;13.632;2024-02-28T14:08:25;17.55;;;4.80;;
34236;SDS011;20501;45.956;13.632;2024-02-28T14:10:51;18.27;;;5.72;;
34236;SDS011;20501;45.956;13.632;2024-02-28T14:13:16;19.92;;;5.55;;
34236;SDS011;20501;45.956;13.632;2024-02-28T14:15:44;17.13;;;5.10;;
34236;SDS011;20501;45.956;13.632;2024-02-28T14:18:11;13.25;;;5.07;;
34236;SDS011;20501;45.956;13.632;2024-02-28T14:20:37;24.17;;;5.95;;
34236;SDS011;20501;45.956;13.632;2024-02-28T14:23:03;22.15;;;5.82;;
34236;SDS011;20501;45.956;13.632;2024-02-28T14:25:30;14.02;;;5.47;;
34236;SDS011;20501;45.956;13.632;2024-02-28T14:27:55;19.67;;;5.82;;
34236;SDS011;20501;45.956;13.632;2024-02-28T14:30:21;13.10;;;4.80;;
34236;SDS011;20501;45.956;13.632;2024-02-28T14:32:47;12.80;;;4.88;;